Time;durP1;ratioP1;P1;durP2;ratioP2;P2;SDS_P1;SDS_P2;PMS_P1;PMS_P2;Temp;Humidity;BMP_temperature;BMP_pressure;BME280_temperature;BME280_humidity;BME280_pressure;Samples;Min_cycle;Max_cycle;Signal;HPM_P1;HPM_P2
2023/01/07 00:01:21;;;;;;;0.40;0.40;;;;;;;4.62;100.00;100030.75;5027335;28;20377;-67
2023/01/07 00:03:48;;;;;;;0.50;0.50;;;;;;;4.61;100.00;100023.03;5027547;28;20041;-68
2023/01/07 00:06:25;;;;;;;0.40;0.40;;;;;;;4.59;100.00;100030.72;5027261;28;20113;-67
2023/01/07 00:08:54;;;;;;;0.50;0.50;;;;;;;4.60;100.00;100032.44;5027700;28;20026;-68
2023/01/07 00:11:25;;;;;;;0.50;0.50;;;;;;;4.59;100.00;100034.19;5027711;28;20022;-69
2023/01/07 00:13:52;;;;;;;0.50;0.50;;;;;;;4.56;100.00;100033.28;5027589;28;20022;-67
2023/01/07 00:16:20;;;;;;;0.50;0.50;;;;;;;4.58;100.00;100029.03;5027064;28;20382;-68
2023/01/07 00:18:46;;;;;;;0.50;0.50;;;;;;;4.55;100.00;100029.00;5027487;28;20048;-68
2023/01/07 00:21:14;;;;;;;0.50;0.50;;;;;;;4.55;100.00;100034.13;5027529;28;20029;-68
2023/01/07 00:23:42;;;;;;;0.40;0.40;;;;;;;4.53;100.00;100044.41;5027293;28;20026;-68
2023/01/07 00:26:10;;;;;;;0.50;0.50;;;;;;;4.51;100.00;100042.63;5027265;28;20030;-68
2023/01/07 00:28:38;;;;;;;0.50;0.50;;;;;;;4.55;100.00;100059.84;5027096;28;20049;-67
2023/01/07 00:31:13;;;;;;;0.50;0.50;;;;;;;4.50;100.00;100041.78;5026931;28;20021;-67
2023/01/07 00:34:22;;;;;;;0.50;0.50;;;;;;;4.56;100.00;100047.00;5025783;28;20018;-67
2023/01/07 00:36:38;;;;;;;0.50;0.50;;;;;;;4.57;100.00;100058.13;5026446;28;20140;-67
2023/01/07 00:39:16;;;;;;;0.50;0.50;;;;;;;4.57;100.00;100052.97;5026773;28;20109;-67
2023/01/07 00:42:52;;;;;;;0.50;0.50;;;;;;;4.56;100.00;100051.28;5026870;28;20044;-67
2023/01/07 00:44:28;;;;;;;0.50;0.50;;;;;;;4.53;100.00;100056.38;5026519;28;20034;-68
2023/01/07 00:46:53;;;;;;;0.60;0.60;;;;;;;4.56;100.00;100041.84;5026549;28;20038;-68
2023/01/07 00:49:18;;;;;;;0.50;0.50;;;;;;;4.53;100.00;100044.41;5026791;28;20473;-66
2023/01/07 00:51:44;;;;;;;0.50;0.50;;;;;;;4.54;100.00;100050.38;5042033;28;20095;-67
2023/01/07 00:54:09;;;;;;;0.50;0.50;;;;;;;4.53;100.00;100054.69;5026755;28;20030;-67
2023/01/07 00:56:34;;;;;;;0.50;0.50;;;;;;;4.54;100.00;100063.25;5026588;28;20052;-67
2023/01/07 00:59:00;;;;;;;0.50;0.50;;;;;;;4.55;100.00;100064.97;5026815;28;20017;-67
2023/01/07 01:01:25;;;;;;;0.40;0.40;;;;;;;4.57;100.00;100079.56;5026472;28;20311;-67
2023/01/07 01:03:51;;;;;;;0.50;0.50;;;;;;;4.58;100.00;100077.88;5026760;28;20022;-68
2023/01/07 01:06:16;;;;;;;0.40;0.40;;;;;;;4.59;100.00;100077.00;5026599;28;20025;-68
2023/01/07 01:08:43;;;;;;;0.50;0.50;;;;;;;4.60;100.00;100083.88;5026493;28;20490;-68
2023/01/07 01:11:10;;;;;;;0.50;0.50;;;;;;;4.59;100.00;100077.00;5026664;28;20022;-67
2023/01/07 01:13:37;;;;;;;0.50;0.50;;;;;;;4.62;100.00;100071.91;5041626;28;20066;-67
2023/01/07 01:16:08;;;;;;;0.47;0.47;;;;;;;4.57;100.00;100078.69;5026146;28;20082;-68
2023/01/07 01:18:34;;;;;;;0.50;0.50;;;;;;;4.55;100.00;100082.97;5026258;28;20025;-69
2023/01/07 01:21:11;;;;;;;0.50;0.50;;;;;;;4.51;100.00;100086.34;5041420;28;20064;-67
2023/01/07 01:23:37;;;;;;;0.50;0.50;;;;;;;4.46;100.00;100092.31;5041343;28;20029;-67
2023/01/07 01:26:15;;;;;;;0.50;0.50;;;;;;;4.43;100.00;100099.97;5041616;28;20081;-67
2023/01/07 01:28:42;;;;;;;0.50;0.50;;;;;;;4.34;100.00;100090.44;5026324;28;20030;-67
2023/01/07 01:31:08;;;;;;;0.50;0.50;;;;;;;4.34;100.00;100098.16;5024677;28;20049;-67
2023/01/07 01:33:33;;;;;;;0.50;0.50;;;;;;;4.29;100.00;100093.81;5025994;28;20030;-66
2023/01/07 01:36:06;;;;;;;0.50;0.50;;;;;;;4.29;100.00;100088.66;5026242;28;20026;-67
2023/01/07 01:38:32;;;;;;;0.50;0.50;;;;;;;4.29;100.00;100088.66;5025703;28;20529;-68
2023/01/07 01:40:57;;;;;;;0.50;0.50;;;;;;;4.25;100.00;100095.47;5025674;28;20022;-68
2023/01/07 01:43:35;;;;;;;0.50;0.50;;;;;;;4.27;100.00;100082.63;5025916;28;20034;-67
2023/01/07 01:46:14;;;;;;;0.50;0.50;;;;;;;4.34;100.00;100097.31;5025723;28;20022;-66
2023/01/07 01:48:46;;;;;;;0.50;0.50;;;;;;;4.31;100.00;100087.00;5025778;28;20017;-66
2023/01/07 01:51:13;;;;;;;0.50;0.50;;;;;;;4.30;100.00;100085.25;5025798;28;20508;-66
2023/01/07 01:53:39;;;;;;;0.50;0.50;;;;;;;4.30;100.00;100098.09;5025707;28;20046;-66
2023/01/07 01:56:16;;;;;;;0.50;0.50;;;;;;;4.28;100.00;100095.50;5025806;28;20057;-66
2023/01/07 01:59:00;;;;;;;0.50;0.50;;;;;;;4.30;100.00;100104.09;5025650;28;20049;-66
2023/01/07 02:01:26;;;;;;;0.60;0.60;;;;;;;4.31;100.00;100108.38;5025738;28;20022;-68
2023/01/07 02:03:52;;;;;;;0.50;0.50;;;;;;;4.28;100.00;100097.22;5040969;28;20030;-66
2023/01/07 02:06:23;;;;;;;0.50;0.50;;;;;;;4.28;100.00;100100.66;5024437;28;20018;-67
2023/01/07 02:08:49;;;;;;;0.60;0.60;;;;;;;4.26;100.00;100099.78;5025617;28;20026;-67
2023/01/07 02:11:43;;;;;;;0.50;0.50;;;;;;;4.22;100.00;100101.44;5029930;28;20041;-67
2023/01/07 02:14:55;;;;;;;0.50;0.50;;;;;;;4.19;100.00;100100.53;5032346;28;20350;-66
2023/01/07 02:17:35;;;;;;;0.50;0.50;;;;;;;4.11;100.00;100091.84;5012979;28;20044;-66
2023/01/07 02:20:42;;;;;;;0.50;0.50;;;;;;;4.02;100.00;100079.75;5032376;28;20025;-66
2023/01/07 02:23:32;;;;;;;0.50;0.50;;;;;;;4.09;100.00;100108.13;5030018;28;20049;-67
2023/01/07 02:26:13;;;;;;;0.50;0.50;;;;;;;4.08;100.00;100106.41;5032274;28;20026;-67
2023/01/07 02:29:13;;;;;;;0.50;0.50;;;;;;;4.11;100.00;100108.13;5032057;28;20072;-67
2023/01/07 02:32:01;;;;;;;0.50;0.50;;;;;;;4.15;100.00;100103.91;5029770;28;20046;-67
2023/01/07 02:34:41;;;;;;;0.50;0.50;;;;;;;4.17;100.00;100112.53;5032085;28;20398;-67
2023/01/07 02:37:32;;;;;;;0.50;0.50;;;;;;;4.17;100.00;100115.09;5031977;28;20034;-66
2023/01/07 02:40:06;;;;;;;0.50;0.50;;;;;;;4.17;100.00;100105.66;5047601;28;20077;-67
2023/01/07 02:42:54;;;;;;;0.50;0.50;;;;;;;4.16;100.00;100103.94;5047508;28;20124;-66
2023/01/07 02:45:44;;;;;;;0.50;0.50;;;;;;;4.15;100.00;100104.78;5047401;28;20033;-66
2023/01/07 02:48:13;;;;;;;0.50;0.50;;;;;;;4.12;100.00;100097.00;5032301;28;20032;-66
2023/01/07 02:50:38;;;;;;;0.40;0.40;;;;;;;4.11;100.00;100102.13;5030871;28;20025;-66
2023/01/07 02:53:07;;;;;;;0.50;0.50;;;;;;;4.09;100.00;100108.13;5047406;28;20021;-65
2023/01/07 02:55:32;;;;;;;0.50;0.50;;;;;;;4.12;100.00;100111.59;5047416;28;20029;-65
2023/01/07 02:58:18;;;;;;;0.50;0.50;;;;;;;4.12;100.00;100106.44;5047158;28;20037;-66
2023/01/07 03:01:17;;;;;;;0.50;0.50;;;;;;;4.13;100.00;100103.03;5032210;28;20022;-66
2023/01/07 03:03:51;;;;;;;0.50;0.50;;;;;;;4.15;100.00;100104.78;5032214;28;20080;-66
2023/01/07 03:06:35;;;;;;;0.52;0.52;;;;;;;4.17;100.00;100095.38;5032067;28;20036;-65
2023/01/07 03:09:15;;;;;;;0.50;0.50;;;;;;;4.18;100.00;100094.56;5047427;28;20470;-66
2023/01/07 03:11:49;;;;;;;0.50;0.50;;;;;;;4.24;100.00;100095.44;5030832;28;20022;-66
2023/01/07 03:14:19;;;;;;;0.50;0.50;;;;;;;4.29;100.00;100104.09;5047445;28;20029;-66
2023/01/07 03:16:53;;;;;;;0.50;0.50;;;;;;;4.34;100.00;100097.31;5031307;28;20025;-67
2023/01/07 03:19:24;;;;;;;0.50;0.50;;;;;;;4.39;100.00;100093.09;5031698;28;20393;-67
2023/01/07 03:21:52;;;;;;;0.50;0.50;;;;;;;4.41;100.00;100095.69;5029819;28;20026;-67
2023/01/07 03:24:18;;;;;;;0.50;0.50;;;;;;;4.41;100.00;100093.13;5028391;28;20025;-67
2023/01/07 03:26:47;;;;;;;0.50;0.50;;;;;;;4.42;100.00;100090.56;5028241;28;20455;-66
2023/01/07 03:29:15;;;;;;;0.50;0.50;;;;;;;4.42;100.00;100090.56;5028368;28;20022;-68
2023/01/07 03:31:55;;;;;;;0.50;0.50;;;;;;;4.42;100.00;100097.41;5028298;28;20053;-66
2023/01/07 03:34:23;;;;;;;0.50;0.50;;;;;;;4.37;100.00;100092.19;5028546;28;20022;-67
2023/01/07 03:37:00;;;;;;;0.50;0.50;;;;;;;4.37;100.00;100087.06;5028191;28;20093;-67
2023/01/07 03:39:28;;;;;;;0.50;0.50;;;;;;;4.35;100.00;100075.88;5028397;28;20053;-66
2023/01/07 03:44:38;;;;;;;0.50;0.50;;;;;;;4.36;100.00;100066.47;5028295;28;20083;-66
2023/01/07 03:47:05;;;;;;;0.50;0.50;;;;;;;4.33;100.00;100072.44;5027711;28;20029;-67
2023/01/07 03:49:33;;;;;;;0.60;0.60;;;;;;;4.33;100.00;100069.84;5043237;28;20022;-67
2023/01/07 03:51:58;;;;;;;0.45;0.45;;;;;;;4.26;100.00;100066.38;5043257;28;20026;-67
2023/01/07 03:54:24;;;;;;;0.50;0.50;;;;;;;4.28;100.00;100076.69;5028095;28;20087;-67
2023/01/07 03:56:49;;;;;;;0.50;0.50;;;;;;;4.28;100.00;100071.53;5027799;28;20594;-67
2023/01/07 03:59:15;;;;;;;0.50;0.50;;;;;;;4.29;100.00;100068.09;5027945;28;20018;-67
2023/01/07 04:01:40;;;;;;;0.50;0.50;;;;;;;4.30;100.00;100069.81;5027544;28;20022;-67
2023/01/07 04:04:05;;;;;;;0.50;0.50;;;;;;;4.33;100.00;100077.56;5027986;28;20490;-67
2023/01/07 04:06:31;;;;;;;0.40;0.40;;;;;;;4.29;100.00;100071.56;5027586;28;20030;-66
2023/01/07 04:08:56;;;;;;;0.50;0.50;;;;;;;4.33;100.00;100088.72;5027761;28;20109;-67
2023/01/07 04:11:22;;;;;;;0.57;0.57;;;;;;;4.28;100.00;100079.25;5027709;28;20465;-67
2023/01/07 04:13:47;;;;;;;0.50;0.50;;;;;;;4.36;100.00;100090.47;5027608;28;20077;-67
2023/01/07 04:16:13;;;;;;;0.50;0.50;;;;;;;4.39;100.00;100090.53;5027591;28;20032;-67
2023/01/07 04:18:38;;;;;;;0.60;0.60;;;;;;;4.41;100.00;100083.66;5027463;28;20032;-67
2023/01/07 04:21:04;;;;;;;0.50;0.50;;;;;;;4.44;100.00;100088.00;5027527;28;20078;-68
2023/01/07 04:23:29;;;;;;;0.50;0.50;;;;;;;4.44;100.00;100088.84;5027515;28;20033;-67
2023/01/07 04:25:54;;;;;;;0.50;0.50;;;;;;;4.46;100.00;100087.16;5027794;28;20025;-68
2023/01/07 04:28:20;;;;;;;0.50;0.50;;;;;;;4.51;100.00;100094.94;5027528;28;20029;-68
2023/01/07 04:30:45;;;;;;;0.50;0.50;;;;;;;4.52;100.00;100094.06;5027017;28;20033;-67
2023/01/07 04:33:10;;;;;;;0.50;0.50;;;;;;;4.54;100.00;100101.81;5026882;28;20355;-67
2023/01/07 04:35:37;;;;;;;0.50;0.50;;;;;;;4.55;100.00;100109.53;5027262;28;20042;-67
2023/01/07 04:38:03;;;;;;;0.50;0.50;;;;;;;4.56;100.00;100106.13;5026859;28;20050;-67
2023/01/07 04:40:28;;;;;;;0.40;0.40;;;;;;;4.51;100.00;100100.06;5027145;28;20157;-67
2023/01/07 04:42:54;;;;;;;0.50;0.50;;;;;;;4.52;100.00;100106.94;5027107;28;20029;-67
2023/01/07 04:45:19;;;;;;;0.50;0.50;;;;;;;4.49;100.00;100112.03;5025397;28;20030;-67
2023/01/07 04:47:44;;;;;;;0.50;0.50;;;;;;;4.45;100.00;100111.16;5026856;28;20033;-67
2023/01/07 04:50:10;;;;;;;0.50;0.50;;;;;;;4.44;100.00;100122.25;5027055;28;20028;-67
2023/01/07 04:52:35;;;;;;;0.50;0.50;;;;;;;4.40;100.00;100117.94;5026880;28;20026;-67
2023/01/07 04:55:01;;;;;;;0.50;0.50;;;;;;;4.40;100.00;100122.22;5026866;28;20025;-67
2023/01/07 04:57:26;;;;;;;0.50;0.50;;;;;;;4.39;100.00;100126.50;5026645;28;20068;-67
2023/01/07 04:59:52;;;;;;;0.50;0.50;;;;;;;4.40;100.00;100133.38;5026756;28;20040;-67
2023/01/07 05:02:17;;;;;;;0.50;0.50;;;;;;;4.36;100.00;100134.16;5041699;28;20022;-68
2023/01/07 05:04:43;;;;;;;0.50;0.50;;;;;;;4.40;100.00;100135.06;5026781;28;20057;-67
2023/01/07 05:07:09;;;;;;;0.50;0.50;;;;;;;4.43;100.00;100135.97;5026558;28;20026;-67
2023/01/07 05:09:34;;;;;;;0.50;0.50;;;;;;;4.44;100.00;100137.69;5026794;28;20066;-67
2023/01/07 05:12:00;;;;;;;0.50;0.50;;;;;;;4.45;100.00;100131.72;5026413;28;20113;-67
2023/01/07 05:14:25;;;;;;;0.50;0.50;;;;;;;4.44;100.00;100135.13;5026482;28;20048;-67
2023/01/07 05:16:50;;;;;;;0.50;0.50;;;;;;;4.44;100.00;100140.25;5026043;28;20536;-67
2023/01/07 05:19:16;;;;;;;0.50;0.50;;;;;;;4.44;100.00;100135.13;5041529;28;20506;-67
2023/01/07 05:21:41;;;;;;;0.50;0.50;;;;;;;4.43;100.00;100143.69;5026249;28;20029;-67
2023/01/07 05:24:07;;;;;;;0.50;0.50;;;;;;;4.45;100.00;100134.28;5026559;28;20029;-67
2023/01/07 05:26:33;;;;;;;0.50;0.50;;;;;;;4.43;100.00;100130.84;5026480;28;20022;-67
2023/01/07 05:28:59;;;;;;;0.50;0.50;;;;;;;4.44;100.00;100135.13;5026190;28;20026;-66
2023/01/07 05:31:24;;;;;;;0.50;0.50;;;;;;;4.45;100.00;100134.28;5024636;28;20018;-67
2023/01/07 05:33:49;;;;;;;0.50;0.50;;;;;;;4.42;100.00;100117.97;5026117;28;20056;-67
2023/01/07 05:36:15;;;;;;;0.50;0.50;;;;;;;4.48;100.00;100133.47;5026220;28;20040;-67
2023/01/07 05:38:40;;;;;;;0.50;0.50;;;;;;;4.45;100.00;100130.84;5025803;28;20060;-67
2023/01/07 05:41:07;;;;;;;0.50;0.50;;;;;;;4.46;100.00;100127.41;5026217;28;20052;-67
2023/01/07 05:43:32;;;;;;;0.50;0.50;;;;;;;4.39;100.00;100123.06;5025828;28;20025;-67
2023/01/07 05:45:58;;;;;;;0.50;0.50;;;;;;;4.42;100.00;100131.69;5025017;28;20072;-67
2023/01/07 05:48:23;;;;;;;0.50;0.50;;;;;;;4.41;100.00;100123.97;5025766;28;20056;-67
2023/01/07 05:50:49;;;;;;;0.50;0.50;;;;;;;4.37;100.00;100112.75;5025886;28;20029;-68
2023/01/07 05:53:14;;;;;;;0.45;0.45;;;;;;;4.36;100.00;100113.59;5025964;28;20022;-67
2023/01/07 05:55:40;;;;;;;0.40;0.40;;;;;;;4.30;100.00;100108.38;5025705;28;20018;-68
2023/01/07 05:58:06;;;;;;;0.50;0.50;;;;;;;4.29;100.00;100111.78;5041005;28;20100;-68
2023/01/07 06:00:33;;;;;;;0.50;0.50;;;;;;;4.22;100.00;100108.28;5025680;28;20029;-68
2023/01/07 06:02:58;;;;;;;0.50;0.50;;;;;;;4.26;100.00;100119.47;5025817;28;20050;-67
2023/01/07 06:05:24;;;;;;;0.50;0.50;;;;;;;4.24;100.00;100121.16;5025757;28;20017;-67
2023/01/07 06:07:50;;;;;;;0.50;0.50;;;;;;;4.18;100.00;100127.09;5025759;28;20021;-66
2023/01/07 06:10:16;;;;;;;0.50;0.50;;;;;;;4.11;100.00;100125.25;5025753;28;20030;-67
2023/01/07 06:12:41;;;;;;;0.50;0.50;;;;;;;4.13;100.00;100133.84;5025693;28;20052;-67
2023/01/07 06:15:07;;;;;;;0.50;0.50;;;;;;;4.11;100.00;100138.09;5025748;28;20069;-67
2023/01/07 06:17:32;;;;;;;0.50;0.50;;;;;;;4.09;100.00;100133.81;5025731;28;20049;-67
2023/01/07 06:19:58;;;;;;;0.50;0.50;;;;;;;4.14;100.00;100122.75;5025928;28;20033;-67
2023/01/07 06:22:24;;;;;;;0.50;0.50;;;;;;;4.16;100.00;100121.91;5025736;28;20041;-68
2023/01/07 06:24:49;;;;;;;0.50;0.50;;;;;;;4.19;100.00;100133.94;5025771;28;20076;-67
2023/01/07 06:27:15;;;;;;;0.50;0.50;;;;;;;4.21;100.00;100127.13;5025588;28;20556;-67
2023/01/07 06:29:40;;;;;;;0.50;0.50;;;;;;;4.25;100.00;100135.75;5025450;28;20029;-67
2023/01/07 06:32:05;;;;;;;0.50;0.50;;;;;;;4.26;100.00;100135.75;5025396;28;20018;-67
2023/01/07 06:34:31;;;;;;;0.50;0.50;;;;;;;4.28;100.00;100133.22;5025475;28;20025;-68
2023/01/07 06:36:56;;;;;;;0.50;0.50;;;;;;;4.28;100.00;100134.06;5025333;28;20041;-69
2023/01/07 06:39:22;;;;;;;0.50;0.50;;;;;;;4.29;100.00;100129.78;5025315;28;20064;-68
2023/01/07 06:41:47;;;;;;;0.50;0.50;;;;;;;4.31;100.00;100128.09;5025336;28;20385;-69
2023/01/07 06:44:13;;;;;;;0.50;0.50;;;;;;;4.31;100.00;100134.09;5025402;28;20021;-69
2023/01/07 06:46:38;;;;;;;0.50;0.50;;;;;;;4.28;100.00;100128.06;5025099;28;20048;-69
2023/01/07 06:49:03;;;;;;;0.40;0.40;;;;;;;4.28;100.00;100121.19;5025451;28;20041;-69
2023/01/07 06:51:29;;;;;;;0.50;0.50;;;;;;;4.32;100.00;100124.69;5025313;28;20025;-69
2023/01/07 06:53:54;;;;;;;0.50;0.50;;;;;;;4.25;100.00;100116.03;5025083;28;20045;-69
2023/01/07 06:56:20;;;;;;;0.50;0.50;;;;;;;4.29;100.00;100128.09;5025799;28;20026;-70
2023/01/07 06:58:45;;;;;;;0.50;0.50;;;;;;;4.29;100.00;100127.22;5029188;28;20026;-70
2023/01/07 07:01:10;;;;;;;0.50;0.50;;;;;;;4.29;100.00;100124.66;5028851;28;20025;-69
2023/01/07 07:03:36;;;;;;;0.50;0.50;;;;;;;4.28;100.00;100131.47;5029136;28;20057;-71
2023/01/07 07:06:01;;;;;;;0.40;0.40;;;;;;;4.29;100.00;100125.53;5029157;28;20026;-71
2023/01/07 07:08:27;;;;;;;0.50;0.50;;;;;;;4.32;100.00;100127.25;5028701;28;20041;-70
2023/01/07 07:10:52;;;;;;;0.50;0.50;;;;;;;4.35;100.00;100132.44;5029210;28;20193;-69
2023/01/07 07:13:18;;;;;;;0.50;0.50;;;;;;;4.37;100.00;100141.03;5031320;28;20013;-70
2023/01/07 07:15:43;;;;;;;0.50;0.50;;;;;;;4.36;100.00;100139.28;5029674;28;20026;-69
2023/01/07 07:18:09;;;;;;;0.50;0.50;;;;;;;4.36;100.00;100143.59;5032698;28;20076;-70
2023/01/07 07:20:34;;;;;;;0.50;0.50;;;;;;;4.27;100.00;100139.19;5039332;28;20037;-70
2023/01/07 07:23:00;;;;;;;0.50;0.50;;;;;;;4.18;100.00;100142.50;5030886;28;20017;-69
2023/01/07 07:25:26;;;;;;;0.50;0.50;;;;;;;4.12;100.00;100140.69;5030110;28;20341;-70
2023/01/07 07:27:52;;;;;;;0.50;0.50;;;;;;;4.00;100.00;100125.09;5031541;28;20025;-70
2023/01/07 07:30:17;;;;;;;0.50;0.50;;;;;;;4.09;100.00;100140.66;5043836;28;20054;-69
2023/01/07 07:32:43;;;;;;;0.50;0.50;;;;;;;4.05;100.00;100132.06;5028446;28;20018;-70
2023/01/07 07:35:09;;;;;;;0.40;0.40;;;;;;;4.05;100.00;100133.75;5028582;28;20030;-70
2023/01/07 07:37:35;;;;;;;0.50;0.50;;;;;;;3.96;100.00;100121.66;5028179;28;20045;-68
2023/01/07 07:40:01;;;;;;;0.50;0.50;;;;;;;4.02;100.00;100133.72;5028344;28;20022;-68
2023/01/07 07:42:26;;;;;;;0.50;0.50;;;;;;;4.01;100.00;100137.97;5026968;28;20029;-68
2023/01/07 07:44:52;;;;;;;0.50;0.50;;;;;;;4.02;100.00;100136.28;5028377;28;20115;-68
2023/01/07 07:47:17;;;;;;;0.50;0.50;;;;;;;4.05;100.00;100139.75;5043225;28;20466;-69
2023/01/07 07:49:43;;;;;;;0.50;0.50;;;;;;;4.07;100.00;100138.06;5028082;28;20049;-69
2023/01/07 07:52:08;;;;;;;0.60;0.60;;;;;;;4.03;100.00;100131.16;5028024;28;20030;-70
2023/01/07 07:54:34;;;;;;;0.50;0.50;;;;;;;4.06;100.00;100140.59;5028174;28;20025;-69
2023/01/07 07:56:59;;;;;;;0.50;0.50;;;;;;;4.05;100.00;100133.75;5026589;28;20053;-69
2023/01/07 07:59:25;;;;;;;1.80;1.70;;;;;;;4.01;100.00;100145.69;5027956;28;20061;-69
2023/01/07 08:01:50;;;;;;;0.50;0.50;;;;;;;3.96;100.00;100139.63;5041943;28;20091;-70
2023/01/07 08:04:15;;;;;;;0.45;0.45;;;;;;;3.86;100.00;100128.34;5027071;28;20025;-70
2023/01/07 08:06:41;;;;;;;0.60;0.60;;;;;;;3.91;100.00;100134.44;5027786;28;20105;-67
2023/01/07 08:09:06;;;;;;;0.50;0.50;;;;;;;3.90;100.00;100135.25;5027094;28;20538;-67
2023/01/07 08:11:32;;;;;;;0.50;0.50;;;;;;;3.90;100.00;100136.97;5027363;28;20045;-68
2023/01/07 08:13:57;;;;;;;0.50;0.50;;;;;;;3.88;100.00;100133.53;5027653;28;20018;-68
2023/01/07 08:16:23;;;;;;;0.50;0.50;;;;;;;3.89;100.00;100137.81;5027603;28;20026;-68
2023/01/07 08:18:48;;;;;;;0.50;0.50;;;;;;;3.89;100.00;100138.69;5027644;28;20022;-67
2023/01/07 08:21:14;;;;;;;0.50;0.50;;;;;;;3.89;100.00;100143.81;5026176;28;20022;-68
2023/01/07 08:23:39;;;;;;;0.50;0.50;;;;;;;3.86;100.00;100143.78;5027323;28;20026;-69
2023/01/07 08:26:05;;;;;;;0.50;0.50;;;;;;;3.91;100.00;100156.69;5026084;28;20030;-71
2023/01/07 08:28:31;;;;;;;0.50;0.50;;;;;;;3.91;100.00;100156.69;5027131;28;20029;-69
2023/01/07 08:31:02;;;;;;;0.50;0.50;;;;;;;3.88;100.00;100142.09;5026976;28;20053;-69
2023/01/07 08:33:27;;;;;;;0.50;0.50;;;;;;;3.91;100.00;100144.72;5027441;28;20029;-66
2023/01/07 08:35:52;;;;;;;0.50;0.50;;;;;;;3.90;100.00;100140.41;5027370;28;20032;-70
2023/01/07 08:38:18;;;;;;;0.50;0.50;;;;;;;3.91;100.00;100142.16;5026674;28;20450;-70
2023/01/07 08:40:43;;;;;;;0.50;0.50;;;;;;;3.93;100.00;100145.56;5027095;28;20521;-72
2023/01/07 08:43:09;;;;;;;0.50;0.50;;;;;;;3.93;100.00;100142.16;5026900;28;20050;-70
2023/01/07 08:45:35;;;;;;;0.50;0.50;;;;;;;3.93;100.00;100132.72;5026716;28;20026;-69
2023/01/07 08:48:00;;;;;;;0.50;0.50;;;;;;;3.94;100.00;100137.03;5026868;28;20029;-70
2023/01/07 08:50:28;;;;;;;0.50;0.50;;;;;;;3.99;100.00;100149.09;5025564;28;20022;-72
2023/01/07 08:52:54;;;;;;;0.50;0.50;;;;;;;4.01;100.00;100145.69;5026661;28;20078;-71
2023/01/07 08:55:20;;;;;;;0.50;0.50;;;;;;;4.02;100.00;100141.41;5026741;28;20045;-69
2023/01/07 08:57:46;;;;;;;0.50;0.50;;;;;;;4.03;100.00;100141.44;5026593;28;20029;-69
2023/01/07 09:00:15;;;;;;;0.50;0.50;;;;;;;4.04;100.00;100147.44;5041854;28;20025;-70
2023/01/07 09:02:41;;;;;;;0.50;0.50;;;;;;;4.05;100.00;100138.88;5026392;28;20026;-71
2023/01/07 09:05:07;;;;;;;0.50;0.50;;;;;;;4.06;100.00;100143.19;5026666;28;20222;-70
2023/01/07 09:07:32;;;;;;;0.50;0.50;;;;;;;4.09;100.00;100140.66;5026656;28;20093;-70
2023/01/07 09:09:57;;;;;;;0.50;0.50;;;;;;;4.09;100.00;100140.66;5026404;28;20121;-70
2023/01/07 09:12:23;;;;;;;0.55;0.55;;;;;;;4.11;100.00;100146.69;5025158;28;20030;-71
2023/01/07 09:14:48;;;;;;;0.50;0.50;;;;;;;4.11;100.00;100141.53;5041411;28;20030;-70
2023/01/07 09:17:14;;;;;;;0.50;0.50;;;;;;;4.13;100.00;100134.72;5026111;28;20076;-70
2023/01/07 09:19:39;;;;;;;0.50;0.50;;;;;;;4.10;100.00;100126.97;5025738;28;20029;-70
2023/01/07 09:22:04;;;;;;;0.50;0.50;;;;;;;4.14;100.00;100139.00;5040829;28;20048;-70
2023/01/07 09:24:30;;;;;;;0.50;0.50;;;;;;;4.18;100.00;100133.09;5026098;28;20030;-71
2023/01/07 09:26:55;;;;;;;0.50;0.50;;;;;;;4.13;100.00;100133.84;5026195;28;20025;-70
2023/01/07 09:29:21;;;;;;;0.50;0.50;;;;;;;4.17;100.00;100126.22;5025959;28;20022;-71
2023/01/07 09:31:46;;;;;;;0.50;0.50;;;;;;;4.20;100.00;100120.25;5025887;28;20049;-72
2023/01/07 09:34:11;;;;;;;0.50;0.50;;;;;;;4.22;100.00;100121.13;5026109;28;20049;-72
2023/01/07 09:36:37;;;;;;;0.50;0.50;;;;;;;4.21;100.00;100112.56;5025867;28;20053;-70
2023/01/07 09:39:03;;;;;;;0.50;0.50;;;;;;;4.14;100.00;100105.63;5025590;28;20097;-71
2023/01/07 09:41:50;;;;;;;0.50;0.50;;;;;;;4.22;100.00;100109.16;5025802;28;20026;-71
2023/01/07 09:44:30;;;;;;;0.50;0.50;;;;;;;4.23;100.00;100104.88;5041099;28;20053;-73
2023/01/07 09:46:56;;;;;;;0.50;0.50;;;;;;;4.19;100.00;100092.81;5025623;28;20037;-69
2023/01/07 09:49:26;;;;;;;0.50;0.50;;;;;;;4.22;100.00;100098.00;5025811;28;20022;-70
2023/01/07 09:51:58;;;;;;;0.50;0.50;;;;;;;4.26;100.00;100099.78;5025869;28;20033;-69
2023/01/07 09:54:28;;;;;;;0.50;0.50;;;;;;;4.27;100.00;100105.75;5026013;28;20040;-69
2023/01/07 09:56:53;;;;;;;0.50;0.50;;;;;;;4.24;100.00;100098.03;5026001;28;20026;-65
2023/01/07 09:59:19;;;;;;;0.50;0.50;;;;;;;4.28;100.00;100097.22;5025620;28;20033;-70
2023/01/07 10:01:54;;;;;;;0.50;0.50;;;;;;;4.34;100.00;100087.88;5025301;28;20053;-69
2023/01/07 10:04:58;;;;;;;0.50;0.50;;;;;;;4.37;100.00;100099.03;5025885;28;20040;-67
2023/01/07 10:07:41;;;;;;;0.50;0.50;;;;;;;4.37;100.00;100102.47;5002721;28;20042;-68
2023/01/07 10:10:21;;;;;;;0.45;0.45;;;;;;;4.42;100.00;100100.84;5040632;28;20030;-69
2023/01/07 10:13:18;;;;;;;0.43;0.43;;;;;;;4.44;100.00;100106.00;5040866;28;20022;-68
2023/01/07 10:15:59;;;;;;;0.50;0.50;;;;;;;4.44;100.00;100096.56;5040673;28;20029;-68
2023/01/07 10:18:45;;;;;;;0.60;0.60;;;;;;;4.49;100.00;100100.91;5025374;28;20451;-68
2023/01/07 10:21:22;;;;;;;0.50;0.50;;;;;;;4.48;100.00;100102.59;5025559;28;20029;-68
2023/01/07 10:23:54;;;;;;;0.50;0.50;;;;;;;4.47;100.00;100106.88;5040630;28;20022;-67
2023/01/07 10:26:34;;;;;;;0.55;0.55;;;;;;;4.50;100.00;100108.63;5025483;28;20578;-68
2023/01/07 10:29:11;;;;;;;0.50;0.50;;;;;;;4.53;100.00;100107.81;5025371;28;20084;-68
2023/01/07 10:31:37;;;;;;;0.50;0.50;;;;;;;4.55;100.00;100100.97;5025886;28;20036;-67
2023/01/07 10:34:12;;;;;;;0.50;0.50;;;;;;;4.51;100.00;100083.78;5029354;28;20081;-69
2023/01/07 10:36:52;;;;;;;0.50;0.50;;;;;;;4.54;100.00;100094.09;5029402;28;20048;-68
2023/01/07 10:39:28;;;;;;;0.50;0.50;;;;;;;4.57;100.00;100104.41;5029130;28;20072;-69
2023/01/07 10:42:19;;;;;;;0.50;0.50;;;;;;;4.54;100.00;100104.38;5029134;28;20498;-69
2023/01/07 10:44:59;;;;;;;0.50;0.50;;;;;;;4.52;100.00;100091.50;5029312;28;20367;-69
2023/01/07 10:47:46;;;;;;;0.45;0.45;;;;;;;4.55;100.00;100096.69;5028791;28;20108;-69
2023/01/07 10:50:36;;;;;;;0.50;0.50;;;;;;;4.58;100.00;100088.16;5029228;28;20028;-68
2023/01/07 10:53:25;;;;;;;0.50;0.50;;;;;;;4.62;100.00;100096.78;5044162;28;20026;-68
2023/01/07 10:56:08;;;;;;;0.45;0.45;;;;;;;4.63;100.00;100091.66;5027506;28;20079;-68
2023/01/07 10:58:39;;;;;;;0.50;0.50;;;;;;;4.68;100.00;100082.25;5028822;28;20036;-68
2023/01/07 11:01:07;;;;;;;0.60;0.60;;;;;;;4.69;100.00;100070.25;5029059;28;20026;-67
2023/01/07 11:03:32;;;;;;;0.50;0.50;;;;;;;4.68;100.00;100066.81;5028709;28;20401;-66
2023/01/07 11:06:11;;;;;;;0.50;0.50;;;;;;;4.63;100.00;100070.19;5028796;28;20022;-66
2023/01/07 11:08:39;;;;;;;0.50;0.50;;;;;;;4.58;100.00;100052.16;5028666;28;20108;-68
2023/01/07 11:11:10;;;;;;;0.55;0.55;;;;;;;4.59;100.00;100041.00;5028790;28;20060;-68
2023/01/07 11:13:39;;;;;;;0.40;0.40;;;;;;;4.59;100.00;100041.00;5028572;28;20022;-67
2023/01/07 11:16:12;;;;;;;0.50;0.50;;;;;;;4.55;100.00;100029.00;5028191;28;20033;-68
2023/01/07 11:18:49;;;;;;;0.50;0.50;;;;;;;4.55;100.00;100029.81;5028474;28;20596;-67
2023/01/07 11:21:37;;;;;;;0.50;0.50;;;;;;;4.56;100.00;100030.69;5028715;28;20050;-68
2023/01/07 11:24:25;;;;;;;0.50;0.50;;;;;;;4.53;100.00;100018.69;5028436;28;20026;-68
2023/01/07 11:26:57;;;;;;;0.50;0.50;;;;;;;4.55;100.00;100029.81;5028456;28;20032;-68
2023/01/07 11:29:26;;;;;;;1.92;1.80;;;;;;;4.53;100.00;100017.81;5028253;28;20017;-69
2023/01/07 11:31:57;;;;;;;0.40;0.40;;;;;;;4.56;100.00;100016.16;5028216;28;20473;-67
2023/01/07 11:34:34;;;;;;;0.65;0.65;;;;;;;4.56;100.00;100015.28;5028564;28;20034;-68
2023/01/07 11:37:00;;;;;;;0.50;0.50;;;;;;;4.58;100.00;100019.56;5028318;28;20474;-68
2023/01/07 11:39:28;;;;;;;0.50;0.50;;;;;;;4.58;100.00;100008.44;5027938;28;20073;-67